PWSweather.com
Personal Weather Stations
Station Observations
EA5BZ
Nuevo Altabix, ElcheES

Nuevo AltabixElcheES

Lat: 38.276, Lon: -0.671

Elevation: 0

Station Type: Davis Vantage Pro 2

http://meteoelche.es

Latest ConditionsUpdated 9:45:00 PM GMT+01:01 Wednesday, Apr 24, 2019
Currently Today's Max Today's Min Today's Average
Temperature 59.1°F15.1°C 68.1°F20.1°C 50.0°F10.0°C 59.6°F15.3°C
Dew Point 51.6°F10.9°C 51.8°F11.0°C 38.4°F3.6°C 44.1°F6.7°C
Winds 3.3 mph NE5.3 kmh NE 17.5 mph -28.2 kmh - - 8.1 mph 13.0 kmh
Wind Gusts 7.0 mph11.3 kmh 29.0 mph46.7 kmh - -
Humidity 76% 76% 40% 57%
Pressure 29.88 in1011.9 mb 29.88 in1011.9 mb 29.70 in1005.8 mb -
Hour Temp Dew Point Humidity Winds Wind Gusts Pressure Precip Precip Rate Daily Precip Total
09:45 PM 59.1°F15.1°C 51.6°F10.9°C 76% 3.3 mph NE5.3 kmh NE 7.0 mph11.3 kmh 29.88 in1011.9 mb 0.00 in0.0 mm 0.00 in0.0 mm 0.00 in0.0 mm
09:40 PM 59.5°F15.3°C 51.7°F10.9°C 75% 2.0 mph ENE3.2 kmh ENE 4.0 mph6.4 kmh 29.88 in1011.9 mb 0.00 in0.0 mm 0.00 in0.0 mm 0.00 in0.0 mm
09:35 PM 59.9°F15.5°C 51.7°F10.9°C 74% 1.3 mph SSE2.1 kmh SSE 4.0 mph6.4 kmh 29.88 in1011.9 mb 0.00 in0.0 mm 0.00 in0.0 mm 0.00 in0.0 mm
09:30 PM 60.2°F15.7°C 51.8°F11.0°C 74% 0.7 mph S1.1 kmh S 2.0 mph3.2 kmh 29.87 in1011.5 mb 0.00 in0.0 mm 0.00 in0.0 mm 0.00 in0.0 mm
09:25 PM 60.3°F15.7°C 51.7°F10.9°C 73% 0.4 mph S0.6 kmh S 1.0 mph1.6 kmh 29.87 in1011.5 mb 0.00 in0.0 mm 0.00 in0.0 mm 0.00 in0.0 mm
09:20 PM 60.3°F15.7°C 51.6°F10.9°C 73% 0.9 mph S1.4 kmh S 3.0 mph4.8 kmh 29.87 in1011.5 mb 0.00 in0.0 mm 0.00 in0.0 mm 0.00 in0.0 mm
09:15 PM 60.4°F15.8°C 51.6°F10.9°C 73% 3.6 mph S5.8 kmh S 6.0 mph9.7 kmh 29.86 in1011.2 mb 0.00 in0.0 mm 0.00 in0.0 mm 0.00 in0.0 mm
09:10 PM 60.4°F15.8°C 51.7°F10.9°C 73% 4.6 mph SSW7.4 kmh SSW 7.0 mph11.3 kmh 29.86 in1011.2 mb 0.00 in0.0 mm 0.00 in0.0 mm 0.00 in0.0 mm
09:05 PM 60.4°F15.8°C 51.7°F10.9°C 73% 4.2 mph SSW6.8 kmh SSW 9.0 mph14.5 kmh 29.86 in1011.2 mb 0.00 in0.0 mm 0.00 in0.0 mm 0.00 in0.0 mm
09:00 PM 60.4°F15.8°C 51.7°F10.9°C 73% 2.5 mph SW4.0 kmh SW 4.0 mph6.4 kmh 29.86 in1011.2 mb 0.00 in0.0 mm 0.00 in0.0 mm 0.00 in0.0 mm
08:55 PM 60.4°F15.8°C 51.7°F10.9°C 73% 2.9 mph SSW4.7 kmh SSW 5.0 mph8.0 kmh 29.86 in1011.2 mb 0.00 in0.0 mm 0.00 in0.0 mm 0.00 in0.0 mm
08:50 PM 60.5°F15.8°C 51.6°F10.9°C 73% 1.8 mph SSW2.9 kmh SSW 4.0 mph6.4 kmh 29.86 in1011.2 mb 0.00 in0.0 mm 0.00 in0.0 mm 0.00 in0.0 mm
08:45 PM 60.5°F15.8°C 51.6°F10.9°C 72% 2.6 mph SW4.2 kmh SW 5.0 mph8.0 kmh 29.86 in1011.2 mb 0.00 in0.0 mm 0.00 in0.0 mm 0.00 in0.0 mm
08:40 PM 60.5°F15.8°C 51.6°F10.9°C 72% 3.0 mph SW4.8 kmh SW 5.0 mph8.0 kmh 29.86 in1011.2 mb 0.00 in0.0 mm 0.00 in0.0 mm 0.00 in0.0 mm
08:35 PM 60.7°F15.9°C 51.5°F10.8°C 72% 3.3 mph SSW5.3 kmh SSW 6.0 mph9.7 kmh 29.85 in1010.8 mb 0.00 in0.0 mm 0.00 in0.0 mm 0.00 in0.0 mm
08:30 PM 60.7°F15.9°C 51.4°F10.8°C 71% 4.9 mph S7.9 kmh S 9.0 mph14.5 kmh 29.85 in1010.8 mb 0.00 in0.0 mm 0.00 in0.0 mm 0.00 in0.0 mm
08:25 PM 60.9°F16.1°C 51.4°F10.8°C 71% 4.2 mph S6.8 kmh S 8.0 mph12.9 kmh 29.85 in1010.8 mb 0.00 in0.0 mm 0.00 in0.0 mm 0.00 in0.0 mm
08:20 PM 60.9°F16.1°C 51.4°F10.8°C 71% 4.9 mph SSE7.9 kmh SSE 9.0 mph14.5 kmh 29.85 in1010.8 mb 0.00 in0.0 mm 0.00 in0.0 mm 0.00 in0.0 mm
08:15 PM 61.0°F16.1°C 51.4°F10.8°C 71% 4.5 mph S7.2 kmh S 10.0 mph16.1 kmh 29.85 in1010.8 mb 0.00 in0.0 mm 0.00 in0.0 mm 0.00 in0.0 mm
08:10 PM 61.1°F16.2°C 51.4°F10.8°C 70% 6.9 mph S11.1 kmh S 14.0 mph22.5 kmh 29.85 in1010.8 mb 0.00 in0.0 mm 0.00 in0.0 mm 0.00 in0.0 mm
08:05 PM 61.3°F16.3°C 51.3°F10.7°C 70% 7.3 mph S11.7 kmh S 13.0 mph20.9 kmh 29.84 in1010.5 mb 0.00 in0.0 mm 0.00 in0.0 mm 0.00 in0.0 mm
08:00 PM 61.5°F16.4°C 51.3°F10.7°C 69% 6.8 mph S10.9 kmh S 12.0 mph19.3 kmh 29.84 in1010.5 mb 0.00 in0.0 mm 0.00 in0.0 mm 0.00 in0.0 mm
07:55 PM 61.7°F16.5°C 51.2°F10.7°C 68% 6.0 mph S9.7 kmh S 12.0 mph19.3 kmh 29.84 in1010.5 mb 0.00 in0.0 mm 0.00 in0.0 mm 0.00 in0.0 mm
07:50 PM 61.9°F16.6°C 51.1°F10.6°C 68% 7.2 mph S11.6 kmh S 13.0 mph20.9 kmh 29.84 in1010.5 mb 0.00 in0.0 mm 0.00 in0.0 mm 0.00 in0.0 mm
07:45 PM 62.1°F16.7°C 51.1°F10.6°C 67% 8.9 mph S14.3 kmh S 15.0 mph24.1 kmh 29.84 in1010.5 mb 0.00 in0.0 mm 0.00 in0.0 mm 0.00 in0.0 mm
07:40 PM 62.4°F16.9°C 50.9°F10.5°C 66% 6.9 mph SSW11.1 kmh SSW 15.0 mph24.1 kmh 29.84 in1010.5 mb 0.00 in0.0 mm 0.00 in0.0 mm 0.00 in0.0 mm
07:35 PM 62.7°F17.1°C 50.7°F10.4°C 65% 6.3 mph S10.1 kmh S 12.0 mph19.3 kmh 29.84 in1010.5 mb 0.00 in0.0 mm 0.00 in0.0 mm 0.00 in0.0 mm
07:30 PM 62.9°F17.2°C 50.4°F10.2°C 64% 7.0 mph SSW11.3 kmh SSW 14.0 mph22.5 kmh 29.84 in1010.5 mb 0.00 in0.0 mm 0.00 in0.0 mm 0.00 in0.0 mm
07:25 PM 63.1°F17.3°C 50.4°F10.2°C 63% 10.7 mph SSW17.2 kmh SSW 18.0 mph29.0 kmh 29.84 in1010.5 mb 0.00 in0.0 mm 0.00 in0.0 mm 0.00 in0.0 mm
07:20 PM 63.4°F17.4°C 50.2°F10.1°C 62% 11.5 mph S18.5 kmh S 20.0 mph32.2 kmh 29.84 in1010.5 mb 0.00 in0.0 mm 0.00 in0.0 mm 0.00 in0.0 mm
07:15 PM 63.7°F17.6°C 50.1°F10.1°C 61% 8.9 mph S14.3 kmh S 16.0 mph25.7 kmh 29.83 in1010.2 mb 0.00 in0.0 mm 0.00 in0.0 mm 0.00 in0.0 mm
07:10 PM 63.9°F17.7°C 50.0°F10.0°C 61% 7.6 mph SSW12.2 kmh SSW 14.0 mph22.5 kmh 29.83 in1010.2 mb 0.00 in0.0 mm 0.00 in0.0 mm 0.00 in0.0 mm
07:05 PM 64.0°F17.8°C 49.7°F9.8°C 60% 11.5 mph SSW18.5 kmh SSW 20.0 mph32.2 kmh 29.83 in1010.2 mb 0.00 in0.0 mm 0.00 in0.0 mm 0.00 in0.0 mm
07:00 PM 64.3°F17.9°C 49.6°F9.8°C 59% 13.7 mph S22.0 kmh S 21.0 mph33.8 kmh 29.83 in1010.2 mb 0.00 in0.0 mm 0.00 in0.0 mm 0.00 in0.0 mm
06:55 PM 64.8°F18.2°C 50.1°F10.1°C 59% 11.9 mph S19.2 kmh S 23.0 mph37.0 kmh 29.82 in1009.8 mb 0.00 in0.0 mm 0.00 in0.0 mm 0.00 in0.0 mm
06:50 PM 65.1°F18.4°C 50.0°F10.0°C 58% 10.6 mph S17.1 kmh S 22.0 mph35.4 kmh 29.82 in1009.8 mb 0.00 in0.0 mm 0.00 in0.0 mm 0.00 in0.0 mm
06:45 PM 65.4°F18.6°C 50.2°F10.1°C 58% 9.8 mph S15.8 kmh S 19.0 mph30.6 kmh 29.82 in1009.8 mb 0.00 in0.0 mm 0.00 in0.0 mm 0.00 in0.0 mm
06:40 PM 65.5°F18.6°C 50.1°F10.1°C 58% 8.4 mph S13.5 kmh S 17.0 mph27.4 kmh 29.82 in1009.8 mb 0.00 in0.0 mm 0.00 in0.0 mm 0.00 in0.0 mm
06:35 PM 65.8°F18.8°C 50.0°F10.0°C 57% 10.1 mph S16.3 kmh S 19.0 mph30.6 kmh 29.82 in1009.8 mb 0.00 in0.0 mm 0.00 in0.0 mm 0.00 in0.0 mm
06:30 PM 66.2°F19.0°C 50.2°F10.1°C 56% 8.2 mph SSE13.2 kmh SSE 16.0 mph25.7 kmh 29.82 in1009.8 mb 0.00 in0.0 mm 0.00 in0.0 mm 0.00 in0.0 mm
06:25 PM 66.5°F19.2°C 50.0°F10.0°C 56% 10.8 mph S17.4 kmh S 18.0 mph29.0 kmh 29.81 in1009.5 mb 0.00 in0.0 mm 0.00 in0.0 mm 0.00 in0.0 mm
06:20 PM 66.6°F19.2°C 49.7°F9.8°C 55% 8.3 mph S13.4 kmh S 17.0 mph27.4 kmh 29.81 in1009.5 mb 0.00 in0.0 mm 0.00 in0.0 mm 0.00 in0.0 mm
06:15 PM 66.6°F19.2°C 48.7°F9.3°C 53% 11.3 mph SSW18.2 kmh SSW 18.0 mph29.0 kmh 29.81 in1009.5 mb 0.00 in0.0 mm 0.00 in0.0 mm 0.00 in0.0 mm
06:10 PM 66.6°F19.2°C 48.6°F9.2°C 52% 9.5 mph S15.3 kmh S 16.0 mph25.7 kmh 29.81 in1009.5 mb 0.00 in0.0 mm 0.00 in0.0 mm 0.00 in0.0 mm
06:05 PM 66.7°F19.3°C 48.3°F9.1°C 52% 11.9 mph SSW19.2 kmh SSW 18.0 mph29.0 kmh 29.81 in1009.5 mb 0.00 in0.0 mm 0.00 in0.0 mm 0.00 in0.0 mm
06:00 PM 66.8°F19.3°C 48.5°F9.2°C 52% 10.2 mph S16.4 kmh S 17.0 mph27.4 kmh 29.81 in1009.5 mb 0.00 in0.0 mm 0.00 in0.0 mm 0.00 in0.0 mm
05:55 PM 66.8°F19.3°C 48.3°F9.1°C 51% 11.9 mph SSW19.2 kmh SSW 18.0 mph29.0 kmh 29.81 in1009.5 mb 0.00 in0.0 mm 0.00 in0.0 mm 0.00 in0.0 mm
05:50 PM 67.0°F19.4°C 48.1°F8.9°C 51% 10.3 mph SSW16.6 kmh SSW 21.0 mph33.8 kmh 29.81 in1009.5 mb 0.00 in0.0 mm 0.00 in0.0 mm 0.00 in0.0 mm
05:45 PM 67.1°F19.5°C 47.7°F8.7°C 50% 10.3 mph SSW16.6 kmh SSW 18.0 mph29.0 kmh 29.81 in1009.5 mb 0.00 in0.0 mm 0.00 in0.0 mm 0.00 in0.0 mm
05:40 PM 67.0°F19.4°C 47.1°F8.4°C 49% 7.0 mph S11.3 kmh S 13.0 mph20.9 kmh 29.81 in1009.5 mb 0.00 in0.0 mm 0.00 in0.0 mm 0.00 in0.0 mm
05:35 PM 67.2°F19.6°C 47.3°F8.5°C 49% 11.1 mph S17.9 kmh S 19.0 mph30.6 kmh 29.81 in1009.5 mb 0.00 in0.0 mm 0.00 in0.0 mm 0.00 in0.0 mm
05:30 PM 67.4°F19.7°C 47.3°F8.5°C 49% 9.6 mph S15.4 kmh S 16.0 mph25.7 kmh 29.81 in1009.5 mb 0.00 in0.0 mm 0.00 in0.0 mm 0.00 in0.0 mm
05:25 PM 67.2°F19.6°C 47.1°F8.4°C 48% 13.2 mph SSW21.2 kmh SSW 18.0 mph29.0 kmh 29.81 in1009.5 mb 0.00 in0.0 mm 0.00 in0.0 mm 0.00 in0.0 mm
05:20 PM 67.5°F19.7°C 47.6°F8.7°C 49% 10.8 mph S17.4 kmh S 17.0 mph27.4 kmh 29.81 in1009.5 mb 0.00 in0.0 mm 0.00 in0.0 mm 0.00 in0.0 mm
05:15 PM 67.4°F19.7°C 47.7°F8.7°C 49% 12.3 mph S19.8 kmh S 19.0 mph30.6 kmh 29.81 in1009.5 mb 0.00 in0.0 mm 0.00 in0.0 mm 0.00 in0.0 mm
05:10 PM 67.7°F19.8°C 48.4°F9.1°C 50% 11.4 mph S18.3 kmh S 17.0 mph27.4 kmh 29.81 in1009.5 mb 0.00 in0.0 mm 0.00 in0.0 mm 0.00 in0.0 mm
05:05 PM 68.0°F20.0°C 49.2°F9.6°C 51% 9.3 mph S15.0 kmh S 19.0 mph30.6 kmh 29.81 in1009.5 mb 0.00 in0.0 mm 0.00 in0.0 mm 0.00 in0.0 mm
05:00 PM 67.8°F19.9°C 49.2°F9.6°C 51% 9.3 mph S15.0 kmh S 18.0 mph29.0 kmh 29.81 in1009.5 mb 0.00 in0.0 mm 0.00 in0.0 mm 0.00 in0.0 mm
04:55 PM 67.4°F19.7°C 48.7°F9.3°C 51% 10.6 mph S17.1 kmh S 19.0 mph30.6 kmh 29.81 in1009.5 mb 0.00 in0.0 mm 0.00 in0.0 mm 0.00 in0.0 mm
04:50 PM 67.4°F19.7°C 48.8°F9.3°C 51% 11.6 mph S18.7 kmh S 20.0 mph32.2 kmh 29.81 in1009.5 mb 0.00 in0.0 mm 0.00 in0.0 mm 0.00 in0.0 mm
04:45 PM 67.4°F19.7°C 49.0°F9.4°C 52% 10.7 mph S17.2 kmh S 23.0 mph37.0 kmh 29.81 in1009.5 mb 0.00 in0.0 mm 0.00 in0.0 mm 0.00 in0.0 mm
04:40 PM 67.4°F19.7°C 48.5°F9.2°C 51% 12.2 mph SSE19.6 kmh SSE 22.0 mph35.4 kmh 29.81 in1009.5 mb 0.00 in0.0 mm 0.00 in0.0 mm 0.00 in0.0 mm
04:35 PM 67.5°F19.7°C 48.3°F9.1°C 50% 9.9 mph S15.9 kmh S 17.0 mph27.4 kmh 29.81 in1009.5 mb 0.00 in0.0 mm 0.00 in0.0 mm 0.00 in0.0 mm
04:30 PM 67.2°F19.6°C 47.7°F8.7°C 50% 9.8 mph SE15.8 kmh SE 15.0 mph24.1 kmh 29.81 in1009.5 mb 0.00 in0.0 mm 0.00 in0.0 mm 0.00 in0.0 mm
04:25 PM 67.0°F19.4°C 47.8°F8.8°C 50% 7.2 mph S11.6 kmh S 14.0 mph22.5 kmh 29.81 in1009.5 mb 0.00 in0.0 mm 0.00 in0.0 mm 0.00 in0.0 mm
04:20 PM 66.9°F19.4°C 47.3°F8.5°C 49% 11.3 mph S18.2 kmh S 18.0 mph29.0 kmh 29.81 in1009.5 mb 0.00 in0.0 mm 0.00 in0.0 mm 0.00 in0.0 mm
04:15 PM 67.2°F19.6°C 47.7°F8.7°C 50% 10.0 mph S16.1 kmh S 19.0 mph30.6 kmh 29.81 in1009.5 mb 0.00 in0.0 mm 0.00 in0.0 mm 0.00 in0.0 mm
04:10 PM 66.8°F19.3°C 47.9°F8.8°C 51% 9.8 mph S15.8 kmh S 19.0 mph30.6 kmh 29.81 in1009.5 mb 0.00 in0.0 mm 0.00 in0.0 mm 0.00 in0.0 mm
04:05 PM 67.3°F19.6°C 48.2°F9.0°C 50% 15.8 mph S25.4 kmh S 22.0 mph35.4 kmh 29.81 in1009.5 mb 0.00 in0.0 mm 0.00 in0.0 mm 0.00 in0.0 mm
04:00 PM 67.1°F19.5°C 48.3°F9.1°C 51% 10.1 mph SSW16.3 kmh SSW 20.0 mph32.2 kmh 29.81 in1009.5 mb 0.00 in0.0 mm 0.00 in0.0 mm 0.00 in0.0 mm
03:55 PM 66.9°F19.4°C 48.3°F9.1°C 51% 12.0 mph S19.3 kmh S 21.0 mph33.8 kmh 29.81 in1009.5 mb 0.00 in0.0 mm 0.00 in0.0 mm 0.00 in0.0 mm
03:50 PM 67.5°F19.7°C 48.5°F9.2°C 51% 14.9 mph SE24.0 kmh SE 22.0 mph35.4 kmh 29.81 in1009.5 mb 0.00 in0.0 mm 0.00 in0.0 mm 0.00 in0.0 mm
03:45 PM 68.0°F20.0°C 48.5°F9.2°C 50% 13.3 mph S21.4 kmh S 25.0 mph40.2 kmh 29.81 in1009.5 mb 0.00 in0.0 mm 0.00 in0.0 mm 0.00 in0.0 mm
03:40 PM 68.0°F20.0°C 48.5°F9.2°C 50% 11.4 mph SE18.3 kmh SE 23.0 mph37.0 kmh 29.81 in1009.5 mb 0.00 in0.0 mm 0.00 in0.0 mm 0.00 in0.0 mm
03:35 PM 68.0°F20.0°C 47.9°F8.8°C 49% 8.0 mph S12.9 kmh S 17.0 mph27.4 kmh 29.81 in1009.5 mb 0.00 in0.0 mm 0.00 in0.0 mm 0.00 in0.0 mm
03:30 PM 67.6°F19.8°C 46.6°F8.1°C 47% 6.8 mph SSE10.9 kmh SSE 14.0 mph22.5 kmh 29.81 in1009.5 mb 0.00 in0.0 mm 0.00 in0.0 mm 0.00 in0.0 mm
03:25 PM 67.5°F19.7°C 45.6°F7.6°C 45% 9.6 mph SSW15.4 kmh SSW 17.0 mph27.4 kmh 29.81 in1009.5 mb 0.00 in0.0 mm 0.00 in0.0 mm 0.00 in0.0 mm
03:20 PM 67.7°F19.8°C 44.2°F6.8°C 43% 10.6 mph S17.1 kmh S 17.0 mph27.4 kmh 29.82 in1009.8 mb 0.00 in0.0 mm 0.00 in0.0 mm 0.00 in0.0 mm
03:15 PM 68.1°F20.1°C 42.7°F5.9°C 40% 12.4 mph SSW20.0 kmh SSW 19.0 mph30.6 kmh 29.82 in1009.8 mb 0.00 in0.0 mm 0.00 in0.0 mm 0.00 in0.0 mm
03:10 PM 67.7°F19.8°C 43.5°F6.4°C 41% 7.2 mph SSW11.6 kmh SSW 17.0 mph27.4 kmh 29.82 in1009.8 mb 0.00 in0.0 mm 0.00 in0.0 mm 0.00 in0.0 mm
03:05 PM 67.7°F19.8°C 43.1°F6.2°C 41% 10.3 mph S16.6 kmh S 17.0 mph27.4 kmh 29.82 in1009.8 mb 0.00 in0.0 mm 0.00 in0.0 mm 0.00 in0.0 mm
03:00 PM 67.7°F19.8°C 43.7°F6.5°C 42% 12.3 mph SSW19.8 kmh SSW 23.0 mph37.0 kmh 29.82 in1009.8 mb 0.00 in0.0 mm 0.00 in0.0 mm 0.00 in0.0 mm
02:55 PM 67.4°F19.7°C 44.1°F6.7°C 43% 12.2 mph SSW19.6 kmh SSW 21.0 mph33.8 kmh 29.82 in1009.8 mb 0.00 in0.0 mm 0.00 in0.0 mm 0.00 in0.0 mm
02:50 PM 66.9°F19.4°C 43.7°F6.5°C 43% 10.9 mph S17.5 kmh S 19.0 mph30.6 kmh 29.82 in1009.8 mb 0.00 in0.0 mm 0.00 in0.0 mm 0.00 in0.0 mm
02:45 PM 67.0°F19.4°C 43.5°F6.4°C 43% 12.8 mph SE20.6 kmh SE 20.0 mph32.2 kmh 29.82 in1009.8 mb 0.00 in0.0 mm 0.00 in0.0 mm 0.00 in0.0 mm
02:40 PM 66.7°F19.3°C 44.4°F6.9°C 44% 9.5 mph S15.3 kmh S 16.0 mph25.7 kmh 29.83 in1010.2 mb 0.00 in0.0 mm 0.00 in0.0 mm 0.00 in0.0 mm
02:35 PM 65.6°F18.7°C 46.5°F8.1°C 50% 9.7 mph SE15.6 kmh SE 24.0 mph38.6 kmh 29.83 in1010.2 mb 0.00 in0.0 mm 0.00 in0.0 mm 0.00 in0.0 mm
02:30 PM 66.0°F18.9°C 47.4°F8.6°C 51% 7.6 mph E12.2 kmh E 13.0 mph20.9 kmh 29.83 in1010.2 mb 0.00 in0.0 mm 0.00 in0.0 mm 0.00 in0.0 mm
02:25 PM 65.9°F18.8°C 48.4°F9.1°C 53% 8.0 mph ESE12.9 kmh ESE 14.0 mph22.5 kmh 29.84 in1010.5 mb 0.00 in0.0 mm 0.00 in0.0 mm 0.00 in0.0 mm
02:20 PM 65.3°F18.5°C 47.8°F8.8°C 53% 10.3 mph ESE16.6 kmh ESE 19.0 mph30.6 kmh 29.84 in1010.5 mb 0.00 in0.0 mm 0.00 in0.0 mm 0.00 in0.0 mm
02:15 PM 65.2°F18.4°C 47.8°F8.8°C 53% 11.3 mph ESE18.2 kmh ESE 18.0 mph29.0 kmh 29.84 in1010.5 mb 0.00 in0.0 mm 0.00 in0.0 mm 0.00 in0.0 mm
02:10 PM 65.6°F18.7°C 48.2°F9.0°C 53% 10.1 mph SE16.3 kmh SE 17.0 mph27.4 kmh 29.84 in1010.5 mb 0.00 in0.0 mm 0.00 in0.0 mm 0.00 in0.0 mm
02:05 PM 64.9°F18.3°C 48.2°F9.0°C 55% 8.2 mph ESE13.2 kmh ESE 14.0 mph22.5 kmh 29.84 in1010.5 mb 0.00 in0.0 mm 0.00 in0.0 mm 0.00 in0.0 mm
02:00 PM 64.3°F17.9°C 47.4°F8.6°C 54% 12.0 mph ESE19.3 kmh ESE 19.0 mph30.6 kmh 29.84 in1010.5 mb 0.00 in0.0 mm 0.00 in0.0 mm 0.00 in0.0 mm
01:55 PM 64.3°F17.9°C 47.2°F8.4°C 54% 12.5 mph ESE20.1 kmh ESE 20.0 mph32.2 kmh 29.84 in1010.5 mb 0.00 in0.0 mm 0.00 in0.0 mm 0.00 in0.0 mm
01:50 PM 63.9°F17.7°C 47.7°F8.7°C 56% 10.2 mph ESE16.4 kmh ESE 16.0 mph25.7 kmh 29.84 in1010.5 mb 0.00 in0.0 mm 0.00 in0.0 mm 0.00 in0.0 mm
01:45 PM 63.2°F17.3°C 48.3°F9.1°C 58% 8.6 mph ESE13.8 kmh ESE 16.0 mph25.7 kmh 29.84 in1010.5 mb 0.00 in0.0 mm 0.00 in0.0 mm 0.00 in0.0 mm
01:40 PM 62.7°F17.1°C 48.0°F8.9°C 59% 12.1 mph ESE19.5 kmh ESE 19.0 mph30.6 kmh 29.84 in1010.5 mb 0.00 in0.0 mm 0.00 in0.0 mm 0.00 in0.0 mm
01:35 PM 63.0°F17.2°C 48.2°F9.0°C 58% 11.9 mph ESE19.2 kmh ESE 20.0 mph32.2 kmh 29.85 in1010.8 mb 0.00 in0.0 mm 0.00 in0.0 mm 0.00 in0.0 mm
01:30 PM 63.5°F17.5°C 48.6°F9.2°C 58% 11.5 mph ESE18.5 kmh ESE 18.0 mph29.0 kmh 29.84 in1010.5 mb 0.00 in0.0 mm 0.00 in0.0 mm 0.00 in0.0 mm
01:25 PM 64.0°F17.8°C 48.3°F9.1°C 57% 13.5 mph SE21.7 kmh SE 20.0 mph32.2 kmh 29.84 in1010.5 mb 0.00 in0.0 mm 0.00 in0.0 mm 0.00 in0.0 mm
01:20 PM 63.9°F17.7°C 47.0°F8.3°C 54% 8.4 mph SE13.5 kmh SE 14.0 mph22.5 kmh 29.84 in1010.5 mb 0.00 in0.0 mm 0.00 in0.0 mm 0.00 in0.0 mm
01:15 PM 63.5°F17.5°C 46.5°F8.1°C 54% 9.7 mph SSE15.6 kmh SSE 14.0 mph22.5 kmh 29.84 in1010.5 mb 0.00 in0.0 mm 0.00 in0.0 mm 0.00 in0.0 mm
01:10 PM 63.2°F17.3°C 46.5°F8.1°C 54% 11.6 mph SE18.7 kmh SE 17.0 mph27.4 kmh 29.85 in1010.8 mb 0.00 in0.0 mm 0.00 in0.0 mm 0.00 in0.0 mm
01:05 PM 62.9°F17.2°C 46.1°F7.8°C 54% 13.6 mph ESE21.9 kmh ESE 19.0 mph30.6 kmh 29.85 in1010.8 mb 0.00 in0.0 mm 0.00 in0.0 mm 0.00 in0.0 mm
01:00 PM 62.7°F17.1°C 46.0°F7.8°C 54% 13.8 mph ESE22.2 kmh ESE 20.0 mph32.2 kmh 29.85 in1010.8 mb 0.00 in0.0 mm 0.00 in0.0 mm 0.00 in0.0 mm
12:55 PM 63.2°F17.3°C 47.4°F8.6°C 56% 15.5 mph ESE24.9 kmh ESE 24.0 mph38.6 kmh 29.85 in1010.8 mb 0.00 in0.0 mm 0.00 in0.0 mm 0.00 in0.0 mm
12:50 PM 63.9°F17.7°C 48.0°F8.9°C 56% 9.5 mph SE15.3 kmh SE 15.0 mph24.1 kmh 29.85 in1010.8 mb 0.00 in0.0 mm 0.00 in0.0 mm 0.00 in0.0 mm
12:45 PM 63.5°F17.5°C 48.6°F9.2°C 58% 8.8 mph SE14.2 kmh SE 17.0 mph27.4 kmh 29.85 in1010.8 mb 0.00 in0.0 mm 0.00 in0.0 mm 0.00 in0.0 mm
12:40 PM 63.1°F17.3°C 48.1°F8.9°C 58% 8.5 mph ESE13.7 kmh ESE 15.0 mph24.1 kmh 29.85 in1010.8 mb 0.00 in0.0 mm 0.00 in0.0 mm 0.00 in0.0 mm
12:35 PM 63.0°F17.2°C 47.5°F8.6°C 57% 10.9 mph SE17.5 kmh SE 16.0 mph25.7 kmh 29.86 in1011.2 mb 0.00 in0.0 mm 0.00 in0.0 mm 0.00 in0.0 mm
12:30 PM 62.6°F17.0°C 47.0°F8.3°C 57% 9.6 mph SE15.4 kmh SE 17.0 mph27.4 kmh 29.86 in1011.2 mb 0.00 in0.0 mm 0.00 in0.0 mm 0.00 in0.0 mm
12:25 PM 62.4°F16.9°C 45.3°F7.4°C 54% 10.9 mph SE17.5 kmh SE 17.0 mph27.4 kmh 29.86 in1011.2 mb 0.00 in0.0 mm 0.00 in0.0 mm 0.00 in0.0 mm
12:20 PM 63.0°F17.2°C 44.7°F7.1°C 51% 10.3 mph ESE16.6 kmh ESE 15.0 mph24.1 kmh 29.87 in1011.5 mb 0.00 in0.0 mm 0.00 in0.0 mm 0.00 in0.0 mm
12:15 PM 63.2°F17.3°C 44.3°F6.8°C 50% 9.8 mph SE15.8 kmh SE 14.0 mph22.5 kmh 29.87 in1011.5 mb 0.00 in0.0 mm 0.00 in0.0 mm 0.00 in0.0 mm
12:10 PM 62.5°F16.9°C 44.6°F7.0°C 52% 6.4 mph SE10.3 kmh SE 12.0 mph19.3 kmh 29.87 in1011.5 mb 0.00 in0.0 mm 0.00 in0.0 mm 0.00 in0.0 mm
12:05 PM 63.1°F17.3°C 43.6°F6.4°C 49% 9.0 mph ESE14.5 kmh ESE 15.0 mph24.1 kmh 29.87 in1011.5 mb 0.00 in0.0 mm 0.00 in0.0 mm 0.00 in0.0 mm
12:00 PM 63.5°F17.5°C 43.7°F6.5°C 48% 8.6 mph SE13.8 kmh SE 15.0 mph24.1 kmh 29.87 in1011.5 mb 0.00 in0.0 mm 0.00 in0.0 mm 0.00 in0.0 mm
11:55 AM 63.7°F17.6°C 44.1°F6.7°C 49% 8.7 mph SE14.0 kmh SE 16.0 mph25.7 kmh 29.87 in1011.5 mb 0.00 in0.0 mm 0.00 in0.0 mm 0.00 in0.0 mm
11:50 AM 63.1°F17.3°C 43.8°F6.6°C 49% 5.4 mph SE8.7 kmh SE 11.0 mph17.7 kmh 29.87 in1011.5 mb 0.00 in0.0 mm 0.00 in0.0 mm 0.00 in0.0 mm
11:45 AM 63.0°F17.2°C 43.1°F6.2°C 48% 8.7 mph SE14.0 kmh SE 13.0 mph20.9 kmh 29.87 in1011.5 mb 0.00 in0.0 mm 0.00 in0.0 mm 0.00 in0.0 mm
11:40 AM 63.3°F17.4°C 43.2°F6.2°C 48% 8.9 mph SE14.3 kmh SE 18.0 mph29.0 kmh 29.87 in1011.5 mb 0.00 in0.0 mm 0.00 in0.0 mm 0.00 in0.0 mm
11:35 AM 62.9°F17.2°C 41.9°F5.5°C 46% 7.5 mph SSW12.1 kmh SSW 13.0 mph20.9 kmh 29.86 in1011.2 mb 0.00 in0.0 mm 0.00 in0.0 mm 0.00 in0.0 mm
11:30 AM 62.6°F17.0°C 42.0°F5.6°C 47% 4.9 mph SSW7.9 kmh SSW 12.0 mph19.3 kmh 29.87 in1011.5 mb 0.00 in0.0 mm 0.00 in0.0 mm 0.00 in0.0 mm
11:25 AM 62.7°F17.1°C 42.2°F5.7°C 47% 5.3 mph S8.5 kmh S 13.0 mph20.9 kmh 29.87 in1011.5 mb 0.00 in0.0 mm 0.00 in0.0 mm 0.00 in0.0 mm
11:20 AM 62.8°F17.1°C 41.9°F5.5°C 46% 5.8 mph S9.3 kmh S 12.0 mph19.3 kmh 29.87 in1011.5 mb 0.00 in0.0 mm 0.00 in0.0 mm 0.00 in0.0 mm
11:15 AM 63.1°F17.3°C 42.1°F5.6°C 46% 6.4 mph SW10.3 kmh SW 12.0 mph19.3 kmh 29.87 in1011.5 mb 0.00 in0.0 mm 0.00 in0.0 mm 0.00 in0.0 mm
11:10 AM 62.7°F17.1°C 42.0°F5.6°C 47% 9.8 mph SW15.8 kmh SW 14.0 mph22.5 kmh 29.87 in1011.5 mb 0.00 in0.0 mm 0.00 in0.0 mm 0.00 in0.0 mm
11:05 AM 62.0°F16.7°C 41.7°F5.4°C 47% 9.5 mph SW15.3 kmh SW 13.0 mph20.9 kmh 29.87 in1011.5 mb 0.00 in0.0 mm 0.00 in0.0 mm 0.00 in0.0 mm
11:00 AM 62.1°F16.7°C 41.8°F5.4°C 47% 6.6 mph SSW10.6 kmh SSW 17.0 mph27.4 kmh 29.87 in1011.5 mb 0.00 in0.0 mm 0.00 in0.0 mm 0.00 in0.0 mm
10:55 AM 62.0°F16.7°C 41.7°F5.4°C 47% 6.6 mph SSW10.6 kmh SSW 13.0 mph20.9 kmh 29.87 in1011.5 mb 0.00 in0.0 mm 0.00 in0.0 mm 0.00 in0.0 mm
10:50 AM 63.1°F17.3°C 41.9°F5.5°C 46% 8.8 mph SSW14.2 kmh SSW 17.0 mph27.4 kmh 29.87 in1011.5 mb 0.00 in0.0 mm 0.00 in0.0 mm 0.00 in0.0 mm
10:45 AM 63.1°F17.3°C 42.5°F5.8°C 47% 9.5 mph SW15.3 kmh SW 15.0 mph24.1 kmh 29.87 in1011.5 mb 0.00 in0.0 mm 0.00 in0.0 mm 0.00 in0.0 mm
10:40 AM 62.8°F17.1°C 42.0°F5.6°C 47% 6.3 mph SW10.1 kmh SW 12.0 mph19.3 kmh 29.86 in1011.2 mb 0.00 in0.0 mm 0.00 in0.0 mm 0.00 in0.0 mm
10:35 AM 62.1°F16.7°C 41.2°F5.1°C 46% 9.1 mph WSW14.6 kmh WSW 13.0 mph20.9 kmh 29.86 in1011.2 mb 0.00 in0.0 mm 0.00 in0.0 mm 0.00 in0.0 mm
10:30 AM 61.8°F16.6°C 40.9°F4.9°C 46% 11.9 mph SW19.2 kmh SW 17.0 mph27.4 kmh 29.86 in1011.2 mb 0.00 in0.0 mm 0.00 in0.0 mm 0.00 in0.0 mm
10:25 AM 62.0°F16.7°C 41.4°F5.2°C 47% 7.9 mph SW12.7 kmh SW 14.0 mph22.5 kmh 29.86 in1011.2 mb 0.00 in0.0 mm 0.00 in0.0 mm 0.00 in0.0 mm
10:20 AM 62.0°F16.7°C 41.4°F5.2°C 47% 10.9 mph SW17.5 kmh SW 16.0 mph25.7 kmh 29.86 in1011.2 mb 0.00 in0.0 mm 0.00 in0.0 mm 0.00 in0.0 mm
10:15 AM 61.6°F16.4°C 41.6°F5.3°C 48% 9.6 mph WSW15.4 kmh WSW 15.0 mph24.1 kmh 29.86 in1011.2 mb 0.00 in0.0 mm 0.00 in0.0 mm 0.00 in0.0 mm
10:10 AM 60.7°F15.9°C 42.0°F5.6°C 50% 8.3 mph SW13.4 kmh SW 14.0 mph22.5 kmh 29.86 in1011.2 mb 0.00 in0.0 mm 0.00 in0.0 mm 0.00 in0.0 mm
10:05 AM 60.2°F15.7°C 41.9°F5.5°C 51% 8.8 mph SW14.2 kmh SW 15.0 mph24.1 kmh 29.87 in1011.5 mb 0.00 in0.0 mm 0.00 in0.0 mm 0.00 in0.0 mm
10:00 AM 59.6°F15.3°C 43.2°F6.2°C 55% 4.9 mph SW7.9 kmh SW 11.0 mph17.7 kmh 29.86 in1011.2 mb 0.00 in0.0 mm 0.00 in0.0 mm 0.00 in0.0 mm
09:55 AM 59.4°F15.2°C 42.8°F6.0°C 54% 9.2 mph SSW14.8 kmh SSW 14.0 mph22.5 kmh 29.86 in1011.2 mb 0.00 in0.0 mm 0.00 in0.0 mm 0.00 in0.0 mm
09:50 AM 59.8°F15.4°C 42.5°F5.8°C 53% 6.8 mph SSW10.9 kmh SSW 13.0 mph20.9 kmh 29.86 in1011.2 mb 0.00 in0.0 mm 0.00 in0.0 mm 0.00 in0.0 mm
09:45 AM 59.7°F15.4°C 42.5°F5.8°C 53% 8.2 mph SSW13.2 kmh SSW 14.0 mph22.5 kmh 29.86 in1011.2 mb 0.00 in0.0 mm 0.00 in0.0 mm 0.00 in0.0 mm
09:40 AM 60.2°F15.7°C 42.7°F5.9°C 52% 5.8 mph S9.3 kmh S 11.0 mph17.7 kmh 29.86 in1011.2 mb 0.00 in0.0 mm 0.00 in0.0 mm 0.00 in0.0 mm
09:35 AM 60.5°F15.8°C 41.4°F5.2°C 49% 9.3 mph SW15.0 kmh SW 15.0 mph24.1 kmh 29.86 in1011.2 mb 0.00 in0.0 mm 0.00 in0.0 mm 0.00 in0.0 mm
09:30 AM 60.4°F15.8°C 41.5°F5.3°C 50% 6.7 mph SW10.8 kmh SW 11.0 mph17.7 kmh 29.86 in1011.2 mb 0.00 in0.0 mm 0.00 in0.0 mm 0.00 in0.0 mm
09:25 AM 60.4°F15.8°C 40.9°F4.9°C 49% 7.3 mph SW11.7 kmh SW 11.0 mph17.7 kmh 29.86 in1011.2 mb 0.00 in0.0 mm 0.00 in0.0 mm 0.00 in0.0 mm
09:20 AM 61.2°F16.2°C 41.8°F5.4°C 49% 4.7 mph SW7.6 kmh SW 12.0 mph19.3 kmh 29.86 in1011.2 mb 0.00 in0.0 mm 0.00 in0.0 mm 0.00 in0.0 mm
09:15 AM 61.1°F16.2°C 41.8°F5.4°C 49% 4.1 mph SW6.6 kmh SW 9.0 mph14.5 kmh 29.86 in1011.2 mb 0.00 in0.0 mm 0.00 in0.0 mm 0.00 in0.0 mm
09:10 AM 60.7°F15.9°C 42.1°F5.6°C 50% 6.3 mph WSW10.1 kmh WSW 9.0 mph14.5 kmh 29.86 in1011.2 mb 0.00 in0.0 mm 0.00 in0.0 mm 0.00 in0.0 mm
09:05 AM 60.2°F15.7°C 42.1°F5.6°C 51% 6.4 mph WSW10.3 kmh WSW 9.0 mph14.5 kmh 29.86 in1011.2 mb 0.00 in0.0 mm 0.00 in0.0 mm 0.00 in0.0 mm
09:00 AM 59.7°F15.4°C 41.8°F5.4°C 51% 4.4 mph WSW7.1 kmh WSW 9.0 mph14.5 kmh 29.86 in1011.2 mb 0.00 in0.0 mm 0.00 in0.0 mm 0.00 in0.0 mm
08:55 AM 59.5°F15.3°C 41.6°F5.3°C 52% 8.1 mph WSW13.0 kmh WSW 12.0 mph19.3 kmh 29.85 in1010.8 mb 0.00 in0.0 mm 0.00 in0.0 mm 0.00 in0.0 mm
08:50 AM 59.3°F15.2°C 42.2°F5.7°C 53% 7.6 mph WSW12.2 kmh WSW 11.0 mph17.7 kmh 29.86 in1011.2 mb 0.00 in0.0 mm 0.00 in0.0 mm 0.00 in0.0 mm
08:45 AM 59.0°F15.0°C 42.1°F5.6°C 53% 4.6 mph WSW7.4 kmh WSW 9.0 mph14.5 kmh 29.86 in1011.2 mb 0.00 in0.0 mm 0.00 in0.0 mm 0.00 in0.0 mm
08:40 AM 58.8°F14.9°C 42.2°F5.7°C 54% 6.7 mph WSW10.8 kmh WSW 11.0 mph17.7 kmh 29.86 in1011.2 mb 0.00 in0.0 mm 0.00 in0.0 mm 0.00 in0.0 mm
08:35 AM 58.5°F14.7°C 42.2°F5.7°C 55% 4.5 mph SW7.2 kmh SW 8.0 mph12.9 kmh 29.85 in1010.8 mb 0.00 in0.0 mm 0.00 in0.0 mm 0.00 in0.0 mm
08:30 AM 58.0°F14.4°C 42.1°F5.6°C 55% 4.1 mph WSW6.6 kmh WSW 7.0 mph11.3 kmh 29.85 in1010.8 mb 0.00 in0.0 mm 0.00 in0.0 mm 0.00 in0.0 mm
08:25 AM 57.7°F14.3°C 41.9°F5.5°C 56% 4.9 mph WSW7.9 kmh WSW 9.0 mph14.5 kmh 29.85 in1010.8 mb 0.00 in0.0 mm 0.00 in0.0 mm 0.00 in0.0 mm
08:20 AM 57.6°F14.2°C 41.9°F5.5°C 56% 5.4 mph WSW8.7 kmh WSW 9.0 mph14.5 kmh 29.84 in1010.5 mb 0.00 in0.0 mm 0.00 in0.0 mm 0.00 in0.0 mm
08:15 AM 57.5°F14.2°C 41.7°F5.4°C 56% 4.3 mph WSW6.9 kmh WSW 8.0 mph12.9 kmh 29.84 in1010.5 mb 0.00 in0.0 mm 0.00 in0.0 mm 0.00 in0.0 mm
08:10 AM 57.4°F14.1°C 41.8°F5.4°C 56% 4.1 mph WSW6.6 kmh WSW 8.0 mph12.9 kmh 29.84 in1010.5 mb 0.00 in0.0 mm 0.00 in0.0 mm 0.00 in0.0 mm
08:05 AM 57.2°F14.0°C 41.9°F5.5°C 57% 4.8 mph SW7.7 kmh SW 8.0 mph12.9 kmh 29.84 in1010.5 mb 0.00 in0.0 mm 0.00 in0.0 mm 0.00 in0.0 mm
08:00 AM 56.4°F13.6°C 41.8°F5.4°C 58% 3.3 mph WSW5.3 kmh WSW 8.0 mph12.9 kmh 29.83 in1010.2 mb 0.00 in0.0 mm 0.00 in0.0 mm 0.00 in0.0 mm
07:55 AM 55.6°F13.1°C 41.6°F5.3°C 59% 2.0 mph WSW3.2 kmh WSW 4.0 mph6.4 kmh 29.83 in1010.2 mb 0.00 in0.0 mm 0.00 in0.0 mm 0.00 in0.0 mm
07:50 AM 55.3°F12.9°C 41.1°F5.1°C 59% 2.3 mph SW3.7 kmh SW 4.0 mph6.4 kmh 29.82 in1009.8 mb 0.00 in0.0 mm 0.00 in0.0 mm 0.00 in0.0 mm
07:45 AM 54.6°F12.6°C 41.1°F5.1°C 60% 4.4 mph WSW7.1 kmh WSW 8.0 mph12.9 kmh 29.82 in1009.8 mb 0.00 in0.0 mm 0.00 in0.0 mm 0.00 in0.0 mm
07:40 AM 54.2°F12.3°C 40.9°F4.9°C 61% 3.9 mph SW6.3 kmh SW 7.0 mph11.3 kmh 29.82 in1009.8 mb 0.00 in0.0 mm 0.00 in0.0 mm 0.00 in0.0 mm
07:35 AM 54.4°F12.4°C 41.0°F5.0°C 60% 2.5 mph SW4.0 kmh SW 4.0 mph6.4 kmh 29.82 in1009.8 mb 0.00 in0.0 mm 0.00 in0.0 mm 0.00 in0.0 mm
07:30 AM 54.2°F12.3°C 41.1°F5.1°C 61% 2.9 mph SW4.7 kmh SW 5.0 mph8.0 kmh 29.82 in1009.8 mb 0.00 in0.0 mm 0.00 in0.0 mm 0.00 in0.0 mm
07:25 AM 53.9°F12.2°C 40.9°F4.9°C 61% 5.3 mph WSW8.5 kmh WSW 8.0 mph12.9 kmh 29.82 in1009.8 mb 0.00 in0.0 mm 0.00 in0.0 mm 0.00 in0.0 mm
07:20 AM 53.5°F11.9°C 40.8°F4.9°C 62% 4.6 mph SW7.4 kmh SW 8.0 mph12.9 kmh 29.82 in1009.8 mb 0.00 in0.0 mm 0.00 in0.0 mm 0.00 in0.0 mm
07:15 AM 53.3°F11.8°C 40.6°F4.8°C 62% 7.5 mph SW12.1 kmh SW 10.0 mph16.1 kmh 29.82 in1009.8 mb 0.00 in0.0 mm 0.00 in0.0 mm 0.00 in0.0 mm
07:10 AM 53.2°F11.8°C 40.8°F4.9°C 63% 6.7 mph SW10.8 kmh SW 11.0 mph17.7 kmh 29.82 in1009.8 mb 0.00 in0.0 mm 0.00 in0.0 mm 0.00 in0.0 mm
07:05 AM 52.9°F11.6°C 40.9°F4.9°C 64% 5.3 mph WSW8.5 kmh WSW 7.0 mph11.3 kmh 29.82 in1009.8 mb 0.00 in0.0 mm 0.00 in0.0 mm 0.00 in0.0 mm
07:00 AM 52.6°F11.4°C 40.7°F4.8°C 64% 4.9 mph SW7.9 kmh SW 7.0 mph11.3 kmh 29.81 in1009.5 mb 0.00 in0.0 mm 0.00 in0.0 mm 0.00 in0.0 mm
06:55 AM 52.3°F11.3°C 40.8°F4.9°C 65% 5.6 mph WSW9.0 kmh WSW 8.0 mph12.9 kmh 29.80 in1009.1 mb 0.00 in0.0 mm 0.00 in0.0 mm 0.00 in0.0 mm
06:50 AM 51.9°F11.1°C 40.8°F4.9°C 66% 5.6 mph WSW9.0 kmh WSW 7.0 mph11.3 kmh 29.80 in1009.1 mb 0.00 in0.0 mm 0.00 in0.0 mm 0.00 in0.0 mm
06:45 AM 51.4°F10.8°C 40.7°F4.8°C 67% 3.6 mph WSW5.8 kmh WSW 6.0 mph9.7 kmh 29.80 in1009.1 mb 0.00 in0.0 mm 0.00 in0.0 mm 0.00 in0.0 mm
06:40 AM 50.9°F10.5°C 40.5°F4.7°C 67% 2.4 mph WSW3.9 kmh WSW 3.0 mph4.8 kmh 29.80 in1009.1 mb 0.00 in0.0 mm 0.00 in0.0 mm 0.00 in0.0 mm
06:35 AM 50.5°F10.3°C 40.3°F4.6°C 68% 3.2 mph WSW5.1 kmh WSW 4.0 mph6.4 kmh 29.80 in1009.1 mb 0.00 in0.0 mm 0.00 in0.0 mm 0.00 in0.0 mm
06:30 AM 50.2°F10.1°C 40.1°F4.5°C 68% 2.2 mph WSW3.5 kmh WSW 3.0 mph4.8 kmh 29.80 in1009.1 mb 0.00 in0.0 mm 0.00 in0.0 mm 0.00 in0.0 mm
06:25 AM 50.2°F10.1°C 40.0°F4.4°C 68% 1.6 mph SW2.6 kmh SW 3.0 mph4.8 kmh 29.80 in1009.1 mb 0.00 in0.0 mm 0.00 in0.0 mm 0.00 in0.0 mm
06:20 AM 50.2°F10.1°C 39.9°F4.4°C 68% 1.7 mph SW2.7 kmh SW 4.0 mph6.4 kmh 29.79 in1008.8 mb 0.00 in0.0 mm 0.00 in0.0 mm 0.00 in0.0 mm
06:15 AM 50.1°F10.1°C 39.7°F4.3°C 67% 3.6 mph SW5.8 kmh SW 5.0 mph8.0 kmh 29.79 in1008.8 mb 0.00 in0.0 mm 0.00 in0.0 mm 0.00 in0.0 mm
06:10 AM 50.0°F10.0°C 39.6°F4.2°C 67% 1.9 mph WSW3.1 kmh WSW 4.0 mph6.4 kmh 29.79 in1008.8 mb 0.00 in0.0 mm 0.00 in0.0 mm 0.00 in0.0 mm
06:05 AM 50.1°F10.1°C 39.6°F4.2°C 67% 1.3 mph WSW2.1 kmh WSW 3.0 mph4.8 kmh 29.79 in1008.8 mb 0.00 in0.0 mm 0.00 in0.0 mm 0.00 in0.0 mm
06:00 AM 50.3°F10.2°C 39.6°F4.2°C 67% 3.3 mph WSW5.3 kmh WSW 6.0 mph9.7 kmh 29.79 in1008.8 mb 0.00 in0.0 mm 0.00 in0.0 mm 0.00 in0.0 mm
05:55 AM 50.3°F10.2°C 39.5°F4.2°C 66% 4.8 mph WSW7.7 kmh WSW 7.0 mph11.3 kmh 29.78 in1008.5 mb 0.00 in0.0 mm 0.00 in0.0 mm 0.00 in0.0 mm
05:50 AM 50.4°F10.2°C 39.5°F4.2°C 66% 5.2 mph WSW8.4 kmh WSW 7.0 mph11.3 kmh 29.78 in1008.5 mb 0.00 in0.0 mm 0.00 in0.0 mm 0.00 in0.0 mm
05:45 AM 50.4°F10.2°C 39.5°F4.2°C 66% 6.3 mph W10.1 kmh W 8.0 mph12.9 kmh 29.78 in1008.5 mb 0.00 in0.0 mm 0.00 in0.0 mm 0.00 in0.0 mm
05:40 AM 50.3°F10.2°C 39.5°F4.2°C 66% 5.9 mph WSW9.5 kmh WSW 7.0 mph11.3 kmh 29.78 in1008.5 mb 0.00 in0.0 mm 0.00 in0.0 mm 0.00 in0.0 mm
05:35 AM 50.2°F10.1°C 39.6°F4.2°C 67% 6.1 mph WSW9.8 kmh WSW 7.0 mph11.3 kmh 29.78 in1008.5 mb 0.00 in0.0 mm 0.00 in0.0 mm 0.00 in0.0 mm
05:30 AM 50.3°F10.2°C 39.7°F4.3°C 67% 6.2 mph WSW10.0 kmh WSW 8.0 mph12.9 kmh 29.78 in1008.5 mb 0.00 in0.0 mm 0.00 in0.0 mm 0.00 in0.0 mm
05:25 AM 50.4°F10.2°C 39.6°F4.2°C 66% 4.5 mph WSW7.2 kmh WSW 7.0 mph11.3 kmh 29.77 in1008.1 mb 0.00 in0.0 mm 0.00 in0.0 mm 0.00 in0.0 mm
05:20 AM 50.4°F10.2°C 39.5°F4.2°C 66% 6.7 mph W10.8 kmh W 10.0 mph16.1 kmh 29.77 in1008.1 mb 0.00 in0.0 mm 0.00 in0.0 mm 0.00 in0.0 mm
05:15 AM 50.5°F10.3°C 39.6°F4.2°C 66% 5.8 mph W9.3 kmh W 9.0 mph14.5 kmh 29.77 in1008.1 mb 0.00 in0.0 mm 0.00 in0.0 mm 0.00 in0.0 mm
05:10 AM 50.6°F10.3°C 39.8°F4.3°C 66% 4.5 mph W7.2 kmh W 8.0 mph12.9 kmh 29.77 in1008.1 mb 0.00 in0.0 mm 0.00 in0.0 mm 0.00 in0.0 mm
05:05 AM 50.7°F10.4°C 40.0°F4.4°C 66% 3.4 mph W5.5 kmh W 6.0 mph9.7 kmh 29.77 in1008.1 mb 0.00 in0.0 mm 0.00 in0.0 mm 0.00 in0.0 mm
05:00 AM 50.8°F10.4°C 40.0°F4.4°C 66% 1.8 mph WSW2.9 kmh WSW 4.0 mph6.4 kmh 29.77 in1008.1 mb 0.00 in0.0 mm 0.00 in0.0 mm 0.00 in0.0 mm
04:55 AM 50.9°F10.5°C 39.8°F4.3°C 66% 2.6 mph WSW4.2 kmh WSW 4.0 mph6.4 kmh 29.77 in1008.1 mb 0.00 in0.0 mm 0.00 in0.0 mm 0.00 in0.0 mm
04:50 AM 51.0°F10.6°C 40.0°F4.4°C 66% 1.9 mph WSW3.1 kmh WSW 4.0 mph6.4 kmh 29.77 in1008.1 mb 0.00 in0.0 mm 0.00 in0.0 mm 0.00 in0.0 mm
04:45 AM 51.0°F10.6°C 39.6°F4.2°C 65% 1.6 mph WSW2.6 kmh WSW 4.0 mph6.4 kmh 29.77 in1008.1 mb 0.00 in0.0 mm 0.00 in0.0 mm 0.00 in0.0 mm
04:40 AM 51.0°F10.6°C 39.7°F4.3°C 65% 0.1 mph SW0.2 kmh SW 1.0 mph1.6 kmh 29.77 in1008.1 mb 0.00 in0.0 mm 0.00 in0.0 mm 0.00 in0.0 mm
04:35 AM 51.1°F10.6°C 39.7°F4.3°C 65% 0.4 mph SW0.6 kmh SW 2.0 mph3.2 kmh 29.77 in1008.1 mb 0.00 in0.0 mm 0.00 in0.0 mm 0.00 in0.0 mm
04:30 AM 51.2°F10.7°C 39.7°F4.3°C 65% 1.8 mph WSW2.9 kmh WSW 3.0 mph4.8 kmh 29.77 in1008.1 mb 0.00 in0.0 mm 0.00 in0.0 mm 0.00 in0.0 mm
04:25 AM 51.2°F10.7°C 39.7°F4.3°C 65% 2.5 mph WSW4.0 kmh WSW 4.0 mph6.4 kmh 29.76 in1007.8 mb 0.00 in0.0 mm 0.00 in0.0 mm 0.00 in0.0 mm
04:20 AM 51.2°F10.7°C 39.7°F4.3°C 65% 6.1 mph SW9.8 kmh SW 9.0 mph14.5 kmh 29.77 in1008.1 mb 0.00 in0.0 mm 0.00 in0.0 mm 0.00 in0.0 mm
04:15 AM 51.3°F10.7°C 39.7°F4.3°C 64% 3.6 mph SW5.8 kmh SW 8.0 mph12.9 kmh 29.76 in1007.8 mb 0.00 in0.0 mm 0.00 in0.0 mm 0.00 in0.0 mm
04:10 AM 51.5°F10.8°C 39.7°F4.3°C 64% 1.8 mph WSW2.9 kmh WSW 4.0 mph6.4 kmh 29.76 in1007.8 mb 0.00 in0.0 mm 0.00 in0.0 mm 0.00 in0.0 mm
04:05 AM 51.6°F10.9°C 39.7°F4.3°C 64% 2.1 mph W3.4 kmh W 4.0 mph6.4 kmh 29.76 in1007.8 mb 0.00 in0.0 mm 0.00 in0.0 mm 0.00 in0.0 mm
04:00 AM 51.8°F11.0°C 39.7°F4.3°C 63% 5.0 mph WNW8.0 kmh WNW 9.0 mph14.5 kmh 29.76 in1007.8 mb 0.00 in0.0 mm 0.00 in0.0 mm 0.00 in0.0 mm
03:55 AM 52.0°F11.1°C 39.7°F4.3°C 63% 4.8 mph W7.7 kmh W 9.0 mph14.5 kmh 29.75 in1007.5 mb 0.00 in0.0 mm 0.00 in0.0 mm 0.00 in0.0 mm
03:50 AM 52.2°F11.2°C 39.7°F4.3°C 62% 3.7 mph WNW6.0 kmh WNW 7.0 mph11.3 kmh 29.75 in1007.5 mb 0.00 in0.0 mm 0.00 in0.0 mm 0.00 in0.0 mm
03:45 AM 52.4°F11.3°C 39.5°F4.2°C 62% 4.6 mph W7.4 kmh W 7.0 mph11.3 kmh 29.75 in1007.5 mb 0.00 in0.0 mm 0.00 in0.0 mm 0.00 in0.0 mm
03:40 AM 52.5°F11.4°C 39.3°F4.1°C 61% 7.2 mph W11.6 kmh W 11.0 mph17.7 kmh 29.75 in1007.5 mb 0.00 in0.0 mm 0.00 in0.0 mm 0.00 in0.0 mm
03:35 AM 52.6°F11.4°C 39.3°F4.1°C 61% 7.9 mph W12.7 kmh W 10.0 mph16.1 kmh 29.75 in1007.5 mb 0.00 in0.0 mm 0.00 in0.0 mm 0.00 in0.0 mm
03:30 AM 52.7°F11.5°C 39.4°F4.1°C 60% 7.9 mph W12.7 kmh W 11.0 mph17.7 kmh 29.74 in1007.1 mb 0.00 in0.0 mm 0.00 in0.0 mm 0.00 in0.0 mm
03:25 AM 52.9°F11.6°C 39.4°F4.1°C 60% 8.3 mph W13.4 kmh W 11.0 mph17.7 kmh 29.74 in1007.1 mb 0.00 in0.0 mm 0.00 in0.0 mm 0.00 in0.0 mm
03:20 AM 53.2°F11.8°C 39.4°F4.1°C 60% 6.6 mph WSW10.6 kmh WSW 10.0 mph16.1 kmh 29.74 in1007.1 mb 0.00 in0.0 mm 0.00 in0.0 mm 0.00 in0.0 mm
03:15 AM 53.3°F11.8°C 39.2°F4.0°C 59% 8.4 mph WSW13.5 kmh WSW 13.0 mph20.9 kmh 29.74 in1007.1 mb 0.00 in0.0 mm 0.00 in0.0 mm 0.00 in0.0 mm
03:10 AM 53.4°F11.9°C 39.1°F3.9°C 58% 9.8 mph WSW15.8 kmh WSW 14.0 mph22.5 kmh 29.74 in1007.1 mb 0.00 in0.0 mm 0.00 in0.0 mm 0.00 in0.0 mm
03:05 AM 53.3°F11.8°C 39.1°F3.9°C 58% 9.5 mph WSW15.3 kmh WSW 13.0 mph20.9 kmh 29.73 in1006.8 mb 0.00 in0.0 mm 0.00 in0.0 mm 0.00 in0.0 mm
03:00 AM 53.3°F11.8°C 39.2°F4.0°C 59% 8.1 mph WSW13.0 kmh WSW 12.0 mph19.3 kmh 29.73 in1006.8 mb 0.00 in0.0 mm 0.00 in0.0 mm 0.00 in0.0 mm
02:55 AM 53.3°F11.8°C 39.2°F4.0°C 59% 8.0 mph WSW12.9 kmh WSW 12.0 mph19.3 kmh 29.73 in1006.8 mb 0.00 in0.0 mm 0.00 in0.0 mm 0.00 in0.0 mm
02:50 AM 53.2°F11.8°C 39.2°F4.0°C 59% 8.8 mph WSW14.2 kmh WSW 13.0 mph20.9 kmh 29.73 in1006.8 mb 0.00 in0.0 mm 0.00 in0.0 mm 0.00 in0.0 mm
02:45 AM 53.2°F11.8°C 39.4°F4.1°C 59% 9.2 mph WSW14.8 kmh WSW 15.0 mph24.1 kmh 29.72 in1006.4 mb 0.00 in0.0 mm 0.00 in0.0 mm 0.00 in0.0 mm
02:40 AM 53.3°F11.8°C 39.4°F4.1°C 59% 10.1 mph WSW16.3 kmh WSW 13.0 mph20.9 kmh 29.72 in1006.4 mb 0.00 in0.0 mm 0.00 in0.0 mm 0.00 in0.0 mm
02:35 AM 53.3°F11.8°C 39.4°F4.1°C 59% 9.2 mph WSW14.8 kmh WSW 13.0 mph20.9 kmh 29.72 in1006.4 mb 0.00 in0.0 mm 0.00 in0.0 mm 0.00 in0.0 mm
02:30 AM 53.5°F11.9°C 39.4°F4.1°C 59% 10.5 mph WSW16.9 kmh WSW 14.0 mph22.5 kmh 29.72 in1006.4 mb 0.00 in0.0 mm 0.00 in0.0 mm 0.00 in0.0 mm
02:25 AM 53.5°F11.9°C 39.3°F4.1°C 58% 11.9 mph WSW19.2 kmh WSW 16.0 mph25.7 kmh 29.72 in1006.4 mb 0.00 in0.0 mm 0.00 in0.0 mm 0.00 in0.0 mm
02:20 AM 53.5°F11.9°C 39.2°F4.0°C 58% 13.3 mph WSW21.4 kmh WSW 18.0 mph29.0 kmh 29.72 in1006.4 mb 0.00 in0.0 mm 0.00 in0.0 mm 0.00 in0.0 mm
02:15 AM 53.6°F12.0°C 39.3°F4.1°C 58% 12.9 mph WSW20.8 kmh WSW 18.0 mph29.0 kmh 29.72 in1006.4 mb 0.00 in0.0 mm 0.00 in0.0 mm 0.00 in0.0 mm
02:10 AM 53.7°F12.1°C 39.4°F4.1°C 58% 12.5 mph WSW20.1 kmh WSW 18.0 mph29.0 kmh 29.72 in1006.4 mb 0.00 in0.0 mm 0.00 in0.0 mm 0.00 in0.0 mm
02:05 AM 54.0°F12.2°C 39.4°F4.1°C 58% 13.8 mph W22.2 kmh W 18.0 mph29.0 kmh 29.71 in1006.1 mb 0.00 in0.0 mm 0.00 in0.0 mm 0.00 in0.0 mm
02:00 AM 54.1°F12.3°C 39.2°F4.0°C 57% 13.8 mph W22.2 kmh W 20.0 mph32.2 kmh 29.71 in1006.1 mb 0.00 in0.0 mm 0.00 in0.0 mm 0.00 in0.0 mm
01:55 AM 54.2°F12.3°C 39.1°F3.9°C 57% 13.1 mph W21.1 kmh W 19.0 mph30.6 kmh 29.71 in1006.1 mb 0.00 in0.0 mm 0.00 in0.0 mm 0.00 in0.0 mm
01:50 AM 54.2°F12.3°C 39.1°F3.9°C 56% 12.8 mph W20.6 kmh W 21.0 mph33.8 kmh 29.71 in1006.1 mb 0.00 in0.0 mm 0.00 in0.0 mm 0.00 in0.0 mm
01:45 AM 54.2°F12.3°C 39.2°F4.0°C 57% 10.9 mph W17.5 kmh W 15.0 mph24.1 kmh 29.71 in1006.1 mb 0.00 in0.0 mm 0.00 in0.0 mm 0.00 in0.0 mm
01:40 AM 54.2°F12.3°C 39.1°F3.9°C 57% 11.3 mph W18.2 kmh W 18.0 mph29.0 kmh 29.71 in1006.1 mb 0.00 in0.0 mm 0.00 in0.0 mm 0.00 in0.0 mm
01:35 AM 54.3°F12.4°C 39.2°F4.0°C 57% 10.5 mph W16.9 kmh W 17.0 mph27.4 kmh 29.71 in1006.1 mb 0.00 in0.0 mm 0.00 in0.0 mm 0.00 in0.0 mm
01:30 AM 54.4°F12.4°C 39.3°F4.1°C 57% 10.9 mph W17.5 kmh W 17.0 mph27.4 kmh 29.71 in1006.1 mb 0.00 in0.0 mm 0.00 in0.0 mm 0.00 in0.0 mm
01:25 AM 54.5°F12.5°C 39.3°F4.1°C 56% 10.7 mph WSW17.2 kmh WSW 16.0 mph25.7 kmh 29.71 in1006.1 mb 0.00 in0.0 mm 0.00 in0.0 mm 0.00 in0.0 mm
01:20 AM 54.5°F12.5°C 39.3°F4.1°C 56% 12.1 mph W19.5 kmh W 19.0 mph30.6 kmh 29.71 in1006.1 mb 0.00 in0.0 mm 0.00 in0.0 mm 0.00 in0.0 mm
01:15 AM 54.6°F12.6°C 39.3°F4.1°C 56% 13.3 mph W21.4 kmh W 20.0 mph32.2 kmh 29.71 in1006.1 mb 0.00 in0.0 mm 0.00 in0.0 mm 0.00 in0.0 mm
01:10 AM 54.6°F12.6°C 39.2°F4.0°C 56% 11.8 mph WSW19.0 kmh WSW 19.0 mph30.6 kmh 29.71 in1006.1 mb 0.00 in0.0 mm 0.00 in0.0 mm 0.00 in0.0 mm
01:05 AM 54.7°F12.6°C 39.1°F3.9°C 56% 11.5 mph WSW18.5 kmh WSW 19.0 mph30.6 kmh 29.70 in1005.8 mb 0.00 in0.0 mm 0.00 in0.0 mm 0.00 in0.0 mm
01:00 AM 54.8°F12.7°C 39.2°F4.0°C 56% 12.7 mph WSW20.4 kmh WSW 18.0 mph29.0 kmh 29.70 in1005.8 mb 0.00 in0.0 mm 0.00 in0.0 mm 0.00 in0.0 mm
12:55 AM 54.9°F12.7°C 39.2°F4.0°C 55% 12.3 mph WSW19.8 kmh WSW 20.0 mph32.2 kmh 29.70 in1005.8 mb 0.00 in0.0 mm 0.00 in0.0 mm 0.00 in0.0 mm
12:50 AM 55.1°F12.8°C 39.2°F4.0°C 55% 11.6 mph WSW18.7 kmh WSW 17.0 mph27.4 kmh 29.71 in1006.1 mb 0.00 in0.0 mm 0.00 in0.0 mm 0.00 in0.0 mm
12:45 AM 55.4°F13.0°C 39.1°F3.9°C 54% 12.4 mph WSW20.0 kmh WSW 17.0 mph27.4 kmh 29.70 in1005.8 mb 0.00 in0.0 mm 0.00 in0.0 mm 0.00 in0.0 mm
12:40 AM 55.6°F13.1°C 39.0°F3.9°C 54% 11.8 mph WSW19.0 kmh WSW 18.0 mph29.0 kmh 29.70 in1005.8 mb 0.00 in0.0 mm 0.00 in0.0 mm 0.00 in0.0 mm
12:35 AM 55.7°F13.2°C 38.9°F3.8°C 53% 14.0 mph WSW22.5 kmh WSW 20.0 mph32.2 kmh 29.70 in1005.8 mb 0.00 in0.0 mm 0.00 in0.0 mm 0.00 in0.0 mm
12:30 AM 55.9°F13.3°C 38.8°F3.8°C 53% 14.3 mph WSW23.0 kmh WSW 24.0 mph38.6 kmh 29.70 in1005.8 mb 0.00 in0.0 mm 0.00 in0.0 mm 0.00 in0.0 mm
12:25 AM 56.2°F13.4°C 38.7°F3.7°C 52% 13.6 mph WSW21.9 kmh WSW 23.0 mph37.0 kmh 29.70 in1005.8 mb 0.00 in0.0 mm 0.00 in0.0 mm 0.00 in0.0 mm
12:20 AM 56.4°F13.6°C 38.5°F3.6°C 51% 13.9 mph WSW22.4 kmh WSW 20.0 mph32.2 kmh 29.70 in1005.8 mb 0.00 in0.0 mm 0.00 in0.0 mm 0.00 in0.0 mm
12:15 AM 56.6°F13.7°C 38.4°F3.6°C 50% 15.2 mph WSW24.5 kmh WSW 21.0 mph33.8 kmh 29.70 in1005.8 mb 0.00 in0.0 mm 0.00 in0.0 mm 0.00 in0.0 mm
12:10 AM 56.8°F13.8°C 38.5°F3.6°C 50% 17.0 mph WSW27.4 kmh WSW 24.0 mph38.6 kmh 29.70 in1005.8 mb 0.00 in0.0 mm 0.00 in0.0 mm 0.00 in0.0 mm
12:05 AM 57.0°F13.9°C 38.4°F3.6°C 50% 16.5 mph WSW26.6 kmh WSW 27.0 mph43.5 kmh 29.70 in1005.8 mb 0.00 in0.0 mm 0.00 in0.0 mm 0.00 in0.0 mm
12:00 AM 57.1°F13.9°C 38.4°F3.6°C 50% 17.5 mph WSW28.2 kmh WSW 29.0 mph46.7 kmh 29.70 in1005.8 mb 0.00 in0.0 mm 0.00 in0.0 mm 0.00 in0.0 mm